Time;durP1;ratioP1;P1;durP2;ratioP2;P2;SDS_P1;SDS_P2;PMS_P1;PMS_P2;Temp;Humidity;BMP_temperature;BMP_pressure;BME280_temperature;BME280_humidity;BME280_pressure;Samples;Min_cycle;Max_cycle;Signal;HPM_P1;HPM_P2
2022/08/18 00:01:04;;;;;;;8.40;7.63;;;;;;;;;;5031180;28;20042;-81
2022/08/18 00:03:50;;;;;;;8.63;7.60;;;;;;;;;;5019045;28;20048;-81
2022/08/18 00:06:36;;;;;;;8.77;7.88;;;;;;;;;;5017805;28;20045;-82
2022/08/18 00:09:22;;;;;;;8.63;7.78;;;;;;;;;;5018189;28;20048;-81
2022/08/18 00:12:22;;;;;;;8.63;7.82;;;;;;;;;;5017521;28;20045;-81
2022/08/18 00:15:10;;;;;;;8.00;7.30;;;;;;;;;;5019134;28;20471;-81
2022/08/18 00:17:56;;;;;;;8.68;7.88;;;;;;;;;;5010355;28;20974;-81
2022/08/18 00:20:41;;;;;;;8.85;7.95;;;;;;;;;;5012148;28;20655;-81
2022/08/18 00:23:31;;;;;;;8.38;7.50;;;;;;;;;;4996456;28;20042;-81
2022/08/18 00:26:17;;;;;;;8.43;7.57;;;;;;;;;;4997974;28;20064;-81
2022/08/18 00:29:02;;;;;;;8.40;7.60;;;;;;;;;;4998046;28;20038;-81
2022/08/18 00:31:48;;;;;;;8.30;7.50;;;;;;;;;;4996925;28;20420;-81
2022/08/18 00:34:34;;;;;;;8.75;7.93;;;;;;;;;;4997014;28;20049;-82
2022/08/18 00:37:20;;;;;;;8.18;7.38;;;;;;;;;;5012021;28;20101;-82
2022/08/18 00:40:07;;;;;;;8.38;7.57;;;;;;;;;;4997794;28;20038;-81
2022/08/18 00:42:56;;;;;;;8.43;7.65;;;;;;;;;;4998427;28;20046;-80
2022/08/18 00:45:42;;;;;;;8.82;8.02;;;;;;;;;;4997428;28;20045;-81
2022/08/18 00:48:28;;;;;;;8.45;7.63;;;;;;;;;;4994991;28;20038;-81
2022/08/18 00:51:33;;;;;;;8.05;7.30;;;;;;;;;;4994523;28;20069;-81
2022/08/18 00:54:27;;;;;;;8.13;7.32;;;;;;;;;;5010718;28;20531;-81
2022/08/18 00:57:13;;;;;;;7.85;7.15;;;;;;;;;;4997059;28;20420;-81
2022/08/18 01:00:07;;;;;;;8.10;7.40;;;;;;;;;;4997802;28;20066;-81
2022/08/18 01:02:55;;;;;;;8.75;7.95;;;;;;;;;;4998541;28;20040;-81
2022/08/18 01:05:47;;;;;;;8.40;7.57;;;;;;;;;;4996141;28;20084;-81
2022/08/18 01:08:33;;;;;;;8.63;7.82;;;;;;;;;;4997829;28;20516;-81
2022/08/18 01:11:19;;;;;;;7.55;6.93;;;;;;;;;;5010422;28;20041;-81
2022/08/18 01:14:05;;;;;;;8.77;7.97;;;;;;;;;;5017167;28;20095;-81
2022/08/18 01:23:14;;;;;;;8.35;7.55;;;;;;;;;;5030191;28;20120;-81
2022/08/18 01:26:00;;;;;;;7.68;6.88;;;;;;;;;;5016258;28;20037;-81
2022/08/18 01:28:46;;;;;;;7.45;6.75;;;;;;;;;;5017474;28;20029;-81
2022/08/18 01:31:48;;;;;;;8.43;7.72;;;;;;;;;;5016086;28;20091;-81
2022/08/18 01:34:34;;;;;;;9.02;8.10;;;;;;;;;;5015891;28;20056;-81
2022/08/18 01:37:22;;;;;;;7.43;6.72;;;;;;;;;;5021786;28;20041;-81
2022/08/18 01:40:10;;;;;;;8.45;7.57;;;;;;;;;;5020176;28;20045;-82
2022/08/18 01:42:55;;;;;;;7.95;7.18;;;;;;;;;;5020185;28;20041;-81
2022/08/18 01:45:41;;;;;;;7.72;7.03;;;;;;;;;;5034864;28;20064;-81
2022/08/18 01:48:27;;;;;;;8.38;7.55;;;;;;;;;;5020605;28;20040;-81
2022/08/18 01:51:13;;;;;;;7.72;7.03;;;;;;;;;;5020185;28;20049;-80
2022/08/18 01:53:58;;;;;;;8.23;7.43;;;;;;;;;;5018197;28;20500;-81
2022/08/18 01:56:47;;;;;;;7.50;6.80;;;;;;;;;;5019413;28;20033;-81
2022/08/18 01:59:34;;;;;;;7.85;7.03;;;;;;;;;;5032895;28;20037;-81
2022/08/18 02:02:25;;;;;;;7.63;6.75;;;;;;;;;;5032522;28;20037;-81
2022/08/18 02:05:13;;;;;;;8.02;7.32;;;;;;;;;;5018300;28;20045;-81
2022/08/18 02:07:59;;;;;;;8.20;7.40;;;;;;;;;;5034607;28;20049;-81
2022/08/18 02:10:45;;;;;;;8.05;7.22;;;;;;;;;;5021230;28;20593;-81
2022/08/18 02:13:31;;;;;;;7.97;7.18;;;;;;;;;;5019917;28;20423;-82
2022/08/18 02:16:17;;;;;;;8.23;7.38;;;;;;;;;;5019021;28;20102;-81
2022/08/18 02:19:03;;;;;;;7.32;6.63;;;;;;;;;;5020323;28;20030;-81
2022/08/18 02:21:50;;;;;;;8.15;7.45;;;;;;;;;;5020595;28;20041;-80
2022/08/18 02:24:36;;;;;;;7.53;6.82;;;;;;;;;;5019660;28;20146;-81
2022/08/18 02:27:22;;;;;;;8.75;7.68;;;;;;;;;;5019243;28;20120;-81
2022/08/18 02:30:11;;;;;;;7.82;7.05;;;;;;;;;;5033498;28;20047;-80
2022/08/18 02:32:57;;;;;;;7.68;6.97;;;;;;;;;;5018681;28;20046;-81
2022/08/18 02:35:45;;;;;;;7.65;6.95;;;;;;;;;;5033137;28;20128;-81
2022/08/18 02:38:30;;;;;;;8.13;7.32;;;;;;;;;;5019763;28;20518;-81
2022/08/18 02:41:16;;;;;;;7.47;6.78;;;;;;;;;;5020322;28;20049;-81
2022/08/18 02:44:03;;;;;;;7.63;6.93;;;;;;;;;;5032865;28;20219;-81
2022/08/18 02:46:52;;;;;;;7.43;6.72;;;;;;;;;;5017986;28;20041;-81
2022/08/18 02:49:38;;;;;;;7.82;7.07;;;;;;;;;;5019318;28;20045;-81
2022/08/18 02:52:31;;;;;;;8.35;7.47;;;;;;;;;;5019490;28;20060;-81
2022/08/18 02:55:17;;;;;;;7.70;6.57;;;;;;;;;;5020097;28;20085;-81
2022/08/18 02:58:03;;;;;;;8.32;7.47;;;;;;;;;;5018586;28;20460;-82
2022/08/18 03:00:48;;;;;;;7.85;7.15;;;;;;;;;;4998237;28;20112;-82
2022/08/18 03:03:35;;;;;;;8.63;7.75;;;;;;;;;;4986232;28;20048;-81
2022/08/18 03:06:21;;;;;;;7.47;6.78;;;;;;;;;;4998368;28;20034;-81
2022/08/18 03:09:08;;;;;;;7.68;6.97;;;;;;;;;;4998563;28;20526;-81
2022/08/18 03:11:53;;;;;;;8.25;7.43;;;;;;;;;;4998493;28;20041;-81
2022/08/18 03:14:39;;;;;;;8.20;6.95;;;;;;;;;;4985724;28;20428;-82
2022/08/18 03:17:25;;;;;;;8.10;7.18;;;;;;;;;;4998514;28;20088;-81
2022/08/18 03:20:11;;;;;;;8.57;7.78;;;;;;;;;;4997773;28;20033;-81
2022/08/18 03:22:57;;;;;;;8.07;7.28;;;;;;;;;;4997272;28;20104;-81
2022/08/18 03:25:47;;;;;;;8.88;7.50;;;;;;;;;;4998084;28;20034;-81
2022/08/18 03:28:33;;;;;;;8.27;7.47;;;;;;;;;;4987688;28;20041;-81
2022/08/18 03:31:21;;;;;;;8.75;7.88;;;;;;;;;;4997853;28;20081;-81
2022/08/18 03:34:07;;;;;;;9.25;8.45;;;;;;;;;;4997352;28;20060;-81
2022/08/18 03:36:53;;;;;;;9.20;7.97;;;;;;;;;;4997306;28;20456;-81
2022/08/18 03:39:39;;;;;;;9.07;7.97;;;;;;;;;;4997339;28;20030;-81
2022/08/18 03:42:25;;;;;;;9.13;8.23;;;;;;;;;;4984452;28;20184;-82
2022/08/18 03:45:10;;;;;;;10.50;8.85;;;;;;;;;;4997342;28;20041;-81
2022/08/18 03:47:56;;;;;;;10.30;9.30;;;;;;;;;;4998417;28;20080;-81
2022/08/18 03:50:46;;;;;;;9.77;8.88;;;;;;;;;;4997418;28;20504;-81
2022/08/18 03:53:35;;;;;;;10.50;9.48;;;;;;;;;;5009015;28;20057;-81
2022/08/18 03:56:22;;;;;;;9.20;8.40;;;;;;;;;;5017565;28;20033;-81
2022/08/18 03:59:19;;;;;;;9.98;8.98;;;;;;;;;;5016490;28;20510;-81
2022/08/18 04:02:05;;;;;;;10.85;9.85;;;;;;;;;;5032322;28;20462;-81
2022/08/18 04:04:51;;;;;;;10.95;9.90;;;;;;;;;;5017168;28;20034;-80
2022/08/18 04:07:37;;;;;;;10.48;9.38;;;;;;;;;;5018157;28;20183;-81
2022/08/18 04:10:23;;;;;;;10.15;9.15;;;;;;;;;;5017436;28;20045;-81
2022/08/18 04:13:09;;;;;;;9.57;8.57;;;;;;;;;;5031694;28;20050;-81
2022/08/18 04:15:58;;;;;;;9.98;8.98;;;;;;;;;;5018208;28;20041;-81
2022/08/18 04:18:44;;;;;;;10.95;9.85;;;;;;;;;;5017406;28;20561;-82
2022/08/18 04:21:34;;;;;;;12.07;10.88;;;;;;;;;;5018340;28;20044;-81
2022/08/18 04:24:20;;;;;;;10.85;9.77;;;;;;;;;;5017139;28;20412;-81
2022/08/18 04:27:06;;;;;;;11.65;10.55;;;;;;;;;;5017359;28;20065;-82
2022/08/18 04:29:52;;;;;;;10.48;9.38;;;;;;;;;;5030180;28;20535;-81
2022/08/18 04:32:38;;;;;;;10.90;9.80;;;;;;;;;;5017407;28;20038;-81
2022/08/18 04:35:24;;;;;;;10.88;9.82;;;;;;;;;;5017733;28;20042;-82
2022/08/18 04:38:09;;;;;;;11.57;10.48;;;;;;;;;;5015759;28;20517;-81
2022/08/18 04:40:56;;;;;;;11.45;10.30;;;;;;;;;;5015844;28;20046;-82
2022/08/18 04:43:41;;;;;;;10.18;9.18;;;;;;;;;;5016571;28;20042;-81
2022/08/18 04:46:27;;;;;;;11.35;10.25;;;;;;;;;;5028380;28;20041;-81
2022/08/18 04:49:13;;;;;;;11.65;10.23;;;;;;;;;;4996601;28;20038;-82
2022/08/18 04:55:04;;;;;;;12.35;11.15;;;;;;;;;;5000687;28;20030;-81
2022/08/18 04:57:50;;;;;;;11.38;10.20;;;;;;;;;;4996714;28;20120;-80
2022/08/18 05:00:36;;;;;;;11.98;10.88;;;;;;;;;;4983710;28;20026;-81
2022/08/18 05:03:25;;;;;;;13.15;11.85;;;;;;;;;;4996043;28;20056;-80
2022/08/18 05:06:11;;;;;;;13.75;12.35;;;;;;;;;;4997257;28;20072;-81
2022/08/18 05:09:00;;;;;;;14.80;12.93;;;;;;;;;;4996046;28;20061;-81
2022/08/18 05:11:45;;;;;;;13.20;11.80;;;;;;;;;;4995208;28;20038;-81
2022/08/18 05:14:32;;;;;;;15.13;13.48;;;;;;;;;;4996180;28;20049;-81
2022/08/18 05:17:17;;;;;;;14.32;11.95;;;;;;;;;;4996083;28;20125;-81
2022/08/18 05:20:07;;;;;;;14.45;12.95;;;;;;;;;;4996248;28;20045;-81
2022/08/18 05:22:54;;;;;;;16.08;14.38;;;;;;;;;;4996765;28;20037;-82
2022/08/18 05:25:40;;;;;;;15.82;14.02;;;;;;;;;;4996119;28;20041;-81
2022/08/18 05:28:26;;;;;;;15.68;14.07;;;;;;;;;;4995985;28;20036;-78
2022/08/18 05:31:16;;;;;;;17.25;15.48;;;;;;;;;;4997249;28;20137;-79
2022/08/18 05:34:03;;;;;;;16.73;14.98;;;;;;;;;;4997589;28;20112;-79
2022/08/18 05:36:49;;;;;;;14.95;13.35;;;;;;;;;;5006574;28;20520;-79
2022/08/18 05:40:00;;;;;;;16.35;14.65;;;;;;;;;;5029850;28;20069;-78
2022/08/18 05:42:47;;;;;;;16.98;14.82;;;;;;;;;;5015237;28;20466;-81
2022/08/18 05:45:33;;;;;;;14.95;13.43;;;;;;;;;;5017397;28;20038;-81
2022/08/18 05:48:20;;;;;;;14.75;13.25;;;;;;;;;;5016259;28;20048;-85
2022/08/18 05:51:15;;;;;;;15.77;13.93;;;;;;;;;;5016243;28;20034;-83
2022/08/18 05:57:13;;;;;;;22.58;19.25;;;;;;;;;;5030825;28;20046;-83
2022/08/18 05:59:59;;;;;;;25.88;20.45;;;;;;;;;;5015861;28;20033;-82
2022/08/18 06:02:49;;;;;;;30.42;23.85;;;;;;;;;;5015818;28;20570;-83
2022/08/18 06:05:39;;;;;;;28.42;23.55;;;;;;;;;;5015964;28;20116;-83
2022/08/18 06:08:28;;;;;;;29.90;23.52;;;;;;;;;;5016440;28;20410;-82
2022/08/18 06:11:13;;;;;;;27.10;21.52;;;;;;;;;;5015355;28;20107;-83
2022/08/18 06:14:00;;;;;;;26.85;21.05;;;;;;;;;;5014792;28;20056;-82
2022/08/18 06:17:17;;;;;;;30.45;20.05;;;;;;;;;;5014454;28;20045;-82
2022/08/18 06:20:31;;;;;;;21.17;17.98;;;;;;;;;;5015177;28;20040;-83
2022/08/18 06:23:16;;;;;;;18.90;16.90;;;;;;;;;;5034284;28;20084;-83
2022/08/18 06:26:02;;;;;;;22.88;16.65;;;;;;;;;;5033221;28;20044;-82
2022/08/18 06:28:51;;;;;;;20.15;16.20;;;;;;;;;;5033972;28;20049;-82
2022/08/18 06:31:39;;;;;;;21.77;14.23;;;;;;;;;;5033059;28;20041;-82
2022/08/18 06:34:44;;;;;;;18.63;14.52;;;;;;;;;;5032207;28;20045;-82
2022/08/18 06:37:30;;;;;;;15.40;13.68;;;;;;;;;;5033030;28;20125;-83
2022/08/18 06:40:16;;;;;;;14.98;13.00;;;;;;;;;;5020112;28;20102;-83
2022/08/18 06:43:02;;;;;;;14.93;13.32;;;;;;;;;;5006458;28;20056;-82
2022/08/18 06:45:50;;;;;;;14.52;13.02;;;;;;;;;;5019558;28;20514;-83
2022/08/18 06:48:39;;;;;;;14.20;12.65;;;;;;;;;;5020206;28;20037;-82
2022/08/18 06:51:26;;;;;;;17.63;14.80;;;;;;;;;;4997562;28;20530;-82
2022/08/18 06:54:18;;;;;;;20.48;15.00;;;;;;;;;;5004342;28;20045;-82
2022/08/18 06:57:04;;;;;;;16.60;13.67;;;;;;;;;;5033277;28;20033;-82
2022/08/18 06:59:59;;;;;;;17.48;13.02;;;;;;;;;;5004445;28;20272;-83
2022/08/18 07:02:54;;;;;;;16.30;12.60;;;;;;;;;;5019244;28;20037;-83
2022/08/18 07:05:58;;;;;;;18.58;14.45;;;;;;;;;;5033537;28;20450;-82
2022/08/18 07:08:44;;;;;;;17.27;12.63;;;;;;;;;;5033014;28;20026;-80
2022/08/18 07:11:33;;;;;;;16.67;12.95;;;;;;;;;;5004391;28;20041;-81
2022/08/18 07:14:20;;;;;;;13.98;11.88;;;;;;;;;;5004139;28;20535;-82
2022/08/18 07:17:09;;;;;;;17.42;12.68;;;;;;;;;;5004694;28;20041;-85
2022/08/18 07:20:06;;;;;;;12.82;11.55;;;;;;;;;;5004891;28;20463;-86
2022/08/18 07:23:00;;;;;;;14.40;12.75;;;;;;;;;;5017480;28;20088;-83
2022/08/18 07:25:47;;;;;;;15.82;14.23;;;;;;;;;;5003759;28;20491;-87
2022/08/18 07:28:40;;;;;;;17.40;14.35;;;;;;;;;;5004915;28;20499;-86
2022/08/18 07:31:52;;;;;;;15.13;12.50;;;;;;;;;;4984937;28;20045;-83
2022/08/18 07:34:40;;;;;;;13.97;11.73;;;;;;;;;;4996032;28;20512;-83
2022/08/18 07:37:42;;;;;;;12.68;11.40;;;;;;;;;;4983697;28;20268;-83
2022/08/18 07:40:44;;;;;;;13.35;11.07;;;;;;;;;;4998530;28;20523;-83
2022/08/18 07:43:50;;;;;;;12.77;11.43;;;;;;;;;;5010390;28;20073;-83
2022/08/18 07:46:42;;;;;;;12.20;10.45;;;;;;;;;;5011621;28;20052;-83
2022/08/18 07:49:32;;;;;;;12.07;10.68;;;;;;;;;;4987326;28;20034;-83
2022/08/18 07:52:24;;;;;;;10.98;9.82;;;;;;;;;;4999049;28;20049;-84
2022/08/18 07:55:13;;;;;;;11.63;9.77;;;;;;;;;;4998102;28;20040;-82
2022/08/18 07:58:18;;;;;;;10.15;8.90;;;;;;;;;;5011909;28;20073;-83
2022/08/18 08:01:28;;;;;;;9.70;8.63;;;;;;;;;;5011533;28;20052;-83
2022/08/18 08:04:36;;;;;;;10.88;8.88;;;;;;;;;;5012992;28;20042;-83
2022/08/18 08:07:25;;;;;;;9.38;8.38;;;;;;;;;;4997627;28;20042;-84
2022/08/18 08:10:22;;;;;;;9.88;8.20;;;;;;;;;;5010992;28;20132;-83
2022/08/18 08:13:17;;;;;;;9.63;8.73;;;;;;;;;;5011295;28;20038;-83
2022/08/18 08:16:08;;;;;;;8.32;7.47;;;;;;;;;;5011219;28;20038;-84
2022/08/18 08:18:57;;;;;;;9.20;8.18;;;;;;;;;;4998373;28;20091;-84
2022/08/18 08:22:05;;;;;;;8.18;7.38;;;;;;;;;;5012152;28;20104;-84
2022/08/18 08:25:12;;;;;;;8.85;7.95;;;;;;;;;;5011388;28;20665;-85
2022/08/18 08:28:27;;;;;;;8.20;7.40;;;;;;;;;;5012378;28;20049;-83
2022/08/18 08:31:41;;;;;;;8.05;6.95;;;;;;;;;;5007987;28;20477;-84
2022/08/18 08:34:31;;;;;;;7.78;6.97;;;;;;;;;;4997411;28;20077;-85
2022/08/18 08:37:40;;;;;;;7.15;6.45;;;;;;;;;;5010883;28;20068;-85
2022/08/18 08:40:38;;;;;;;7.60;6.80;;;;;;;;;;4998450;28;20496;-84
2022/08/18 08:43:35;;;;;;;7.00;6.30;;;;;;;;;;5010799;28;20087;-85
2022/08/18 08:46:22;;;;;;;7.35;6.65;;;;;;;;;;4996957;28;20519;-84
2022/08/18 08:49:41;;;;;;;6.85;6.13;;;;;;;;;;4997139;28;20407;-84
2022/08/18 08:52:36;;;;;;;6.32;5.70;;;;;;;;;;5012189;28;20504;-84
2022/08/18 08:55:24;;;;;;;6.57;5.80;;;;;;;;;;5009612;28;20046;-85
2022/08/18 08:58:20;;;;;;;7.95;6.05;;;;;;;;;;5010737;28;20038;-85
2022/08/18 09:01:09;;;;;;;5.97;5.13;;;;;;;;;;4997820;28;20046;-85
2022/08/18 09:04:05;;;;;;;6.25;5.10;;;;;;;;;;4996239;28;20038;-85
2022/08/18 09:07:19;;;;;;;5.80;5.20;;;;;;;;;;5010350;28;20037;-85
2022/08/18 09:10:28;;;;;;;6.05;5.40;;;;;;;;;;5010507;28;20105;-85
2022/08/18 09:13:13;;;;;;;6.25;5.53;;;;;;;;;;5011957;28;20046;-85
2022/08/18 09:16:20;;;;;;;6.28;4.80;;;;;;;;;;5011983;28;20041;-85
2022/08/18 09:19:24;;;;;;;6.35;5.75;;;;;;;;;;5009684;28;20038;-85
2022/08/18 09:22:14;;;;;;;6.13;4.88;;;;;;;;;;5011681;28;20034;-85
2022/08/18 09:25:01;;;;;;;5.25;4.75;;;;;;;;;;5010085;28;20495;-82
2022/08/18 09:27:47;;;;;;;5.63;4.85;;;;;;;;;;4995924;28;20045;-85
2022/08/18 09:31:00;;;;;;;5.32;4.82;;;;;;;;;;5009970;28;20588;-84
2022/08/18 09:34:13;;;;;;;5.75;5.15;;;;;;;;;;5011217;28;20046;-85
2022/08/18 09:37:22;;;;;;;5.07;4.38;;;;;;;;;;5010270;28;20041;-84
2022/08/18 09:43:38;;;;;;;5.07;4.10;;;;;;;;;;5010753;28;20046;-84
2022/08/18 09:46:46;;;;;;;5.60;4.82;;;;;;;;;;5010342;28;20524;-84
2022/08/18 09:49:48;;;;;;;6.75;4.55;;;;;;;;;;5011650;28;20073;-84
2022/08/18 09:52:33;;;;;;;5.53;5.03;;;;;;;;;;4997884;28;20092;-84
2022/08/18 09:55:22;;;;;;;5.47;4.88;;;;;;;;;;5011101;28;20060;-84
2022/08/18 09:58:46;;;;;;;5.90;4.88;;;;;;;;;;5015316;28;20045;-84
2022/08/18 10:01:37;;;;;;;6.65;4.88;;;;;;;;;;5013518;28;20256;-84
2022/08/18 10:04:30;;;;;;;6.95;5.55;;;;;;;;;;5000994;28;20125;-84
2022/08/18 10:07:29;;;;;;;6.82;5.50;;;;;;;;;;5000037;28;20033;-84
2022/08/18 10:10:21;;;;;;;8.35;5.45;;;;;;;;;;5026741;28;20524;-84
2022/08/18 10:13:18;;;;;;;6.33;5.67;;;;;;;;;;5014909;28;20135;-83
2022/08/18 10:16:07;;;;;;;6.28;4.97;;;;;;;;;;5014458;28;20371;-84
2022/08/18 10:19:09;;;;;;;6.82;5.30;;;;;;;;;;5013512;28;20042;-84
2022/08/18 10:21:55;;;;;;;6.33;5.67;;;;;;;;;;5013462;28;20500;-84
2022/08/18 10:24:58;;;;;;;6.32;5.15;;;;;;;;;;5014538;28;20038;-84
2022/08/18 10:27:49;;;;;;;7.15;5.55;;;;;;;;;;4999666;28;20452;-84
2022/08/18 10:30:35;;;;;;;6.70;5.70;;;;;;;;;;5001016;28;20048;-84
2022/08/18 10:33:58;;;;;;;6.03;5.38;;;;;;;;;;5013015;28;20125;-84
2022/08/18 10:36:51;;;;;;;6.43;5.82;;;;;;;;;;5008968;28;20522;-84
2022/08/18 10:39:37;;;;;;;8.55;6.03;;;;;;;;;;5013672;28;20521;-84
2022/08/18 10:42:28;;;;;;;6.85;5.60;;;;;;;;;;5014151;28;20052;-84
2022/08/18 10:45:30;;;;;;;7.40;6.07;;;;;;;;;;4999138;28;20447;-84
2022/08/18 10:48:21;;;;;;;8.27;6.63;;;;;;;;;;5012376;28;20463;-85
2022/08/18 10:51:10;;;;;;;10.03;8.37;;;;;;;;;;5014173;28;20046;-85
2022/08/18 10:54:03;;;;;;;15.30;12.55;;;;;;;;;;5014254;28;20037;-85
2022/08/18 10:56:54;;;;;;;19.02;15.88;;;;;;;;;;5012918;28;20088;-86
2022/08/18 10:59:48;;;;;;;23.90;16.60;;;;;;;;;;4985854;28;20417;-85
2022/08/18 11:03:10;;;;;;;18.95;15.18;;;;;;;;;;5001759;28;20416;-86
2022/08/18 11:06:03;;;;;;;21.27;15.07;;;;;;;;;;5012621;28;20030;-85
2022/08/18 11:08:50;;;;;;;21.05;15.00;;;;;;;;;;5004172;28;20095;-85
2022/08/18 11:11:42;;;;;;;20.20;14.50;;;;;;;;;;4986110;28;20096;-85
2022/08/18 11:14:37;;;;;;;18.83;14.90;;;;;;;;;;4985317;28;20104;-85
2022/08/18 11:17:34;;;;;;;17.02;12.48;;;;;;;;;;5012751;28;20069;-85
2022/08/18 11:20:21;;;;;;;15.32;11.48;;;;;;;;;;5011985;28;20034;-84
2022/08/18 11:23:13;;;;;;;13.50;10.27;;;;;;;;;;5012589;28;20080;-84
2022/08/18 11:26:12;;;;;;;15.00;10.63;;;;;;;;;;5012886;28;20049;-84
2022/08/18 11:28:58;;;;;;;13.65;9.50;;;;;;;;;;5011614;28;20038;-84
2022/08/18 11:31:45;;;;;;;14.75;10.30;;;;;;;;;;5011957;28;20099;-83
2022/08/18 11:34:38;;;;;;;11.50;8.57;;;;;;;;;;5012302;28;20042;-83
2022/08/18 11:37:32;;;;;;;14.60;8.90;;;;;;;;;;4999767;28;20126;-83
2022/08/18 11:40:18;;;;;;;11.23;9.18;;;;;;;;;;5012275;28;20041;-84
2022/08/18 11:43:18;;;;;;;11.00;8.60;;;;;;;;;;5025299;28;20053;-85
2022/08/18 11:46:24;;;;;;;10.68;8.40;;;;;;;;;;5025538;28;20068;-83
2022/08/18 11:49:18;;;;;;;14.93;9.20;;;;;;;;;;5007163;28;20093;-83
2022/08/18 11:52:01;;;;;;;10.82;9.18;;;;;;;;;;5015661;28;20034;-83
2022/08/18 11:54:43;;;;;;;11.73;9.07;;;;;;;;;;4999591;28;20626;-83
2022/08/18 11:57:47;;;;;;;12.15;9.20;;;;;;;;;;5016207;28;20048;-83
2022/08/18 12:00:37;;;;;;;11.02;9.60;;;;;;;;;;5032032;28;20048;-83
2022/08/18 12:03:07;;;;;;;10.82;8.25;;;;;;;;;;5024195;28;20055;-83
2022/08/18 12:06:14;;;;;;;9.07;7.88;;;;;;;;;;5031973;28;20045;-83
2022/08/18 12:08:52;;;;;;;12.48;8.63;;;;;;;;;;5007451;28;20442;-82
2022/08/18 12:11:23;;;;;;;9.27;8.07;;;;;;;;;;4995322;28;20482;-83
2022/08/18 12:14:00;;;;;;;9.77;8.60;;;;;;;;;;4995884;28;20413;-83
2022/08/18 12:16:33;;;;;;;12.80;9.98;;;;;;;;;;4996310;28;20037;-83
2022/08/18 12:18:59;;;;;;;18.20;15.38;;;;;;;;;;4995390;28;20108;-83
2022/08/18 12:21:24;;;;;;;20.25;16.75;;;;;;;;;;4979398;28;20061;-83
2022/08/18 12:23:50;;;;;;;24.27;19.35;;;;;;;;;;5003877;28;20390;-84
2022/08/18 12:26:15;;;;;;;22.13;17.35;;;;;;;;;;4981402;28;20014;-83
2022/08/18 12:28:41;;;;;;;22.48;17.85;;;;;;;;;;4980826;28;20127;-83
2022/08/18 12:31:07;;;;;;;19.75;16.83;;;;;;;;;;4995990;28;20049;-83
2022/08/18 12:33:34;;;;;;;20.17;16.15;;;;;;;;;;5013135;28;20503;-83
2022/08/18 12:36:00;;;;;;;18.67;16.08;;;;;;;;;;4980722;28;20034;-84
2022/08/18 12:38:25;;;;;;;21.42;15.43;;;;;;;;;;5012828;28;20025;-83
2022/08/18 12:40:52;;;;;;;18.58;14.75;;;;;;;;;;4979850;28;20507;-83
2022/08/18 12:43:17;;;;;;;17.52;14.00;;;;;;;;;;4980378;28;20070;-83
2022/08/18 12:45:43;;;;;;;18.25;14.48;;;;;;;;;;4996571;28;20488;-83
2022/08/18 12:48:09;;;;;;;20.15;15.57;;;;;;;;;;5012276;28;20046;-84
2022/08/18 12:50:35;;;;;;;15.05;12.30;;;;;;;;;;4999830;28;20128;-84
2022/08/18 12:53:01;;;;;;;15.18;12.55;;;;;;;;;;5015732;28;20030;-83
2022/08/18 12:55:27;;;;;;;14.93;12.70;;;;;;;;;;5032039;28;20125;-83
2022/08/18 12:57:54;;;;;;;16.38;12.68;;;;;;;;;;4996136;28;20461;-81
2022/08/18 13:00:20;;;;;;;13.20;10.82;;;;;;;;;;4996120;28;20034;-81
2022/08/18 13:02:45;;;;;;;13.73;11.10;;;;;;;;;;4979618;28;20072;-82
2022/08/18 13:05:11;;;;;;;12.95;11.07;;;;;;;;;;4996364;28;20126;-83
2022/08/18 13:07:37;;;;;;;14.95;12.38;;;;;;;;;;4979790;28;20511;-82
2022/08/18 13:10:03;;;;;;;13.13;9.77;;;;;;;;;;4995998;28;20026;-82
2022/08/18 13:12:28;;;;;;;11.05;9.63;;;;;;;;;;4995872;28;20084;-82
2022/08/18 13:14:54;;;;;;;10.65;9.55;;;;;;;;;;4996351;28;20116;-82
2022/08/18 13:17:19;;;;;;;10.82;9.65;;;;;;;;;;4995783;28;20030;-82
2022/08/18 13:19:45;;;;;;;10.85;9.52;;;;;;;;;;4979932;28;20102;-83
2022/08/18 13:22:11;;;;;;;11.77;10.20;;;;;;;;;;4996134;28;20449;-82
2022/08/18 13:24:36;;;;;;;10.77;9.65;;;;;;;;;;4995730;28;20065;-82
2022/08/18 13:27:02;;;;;;;11.45;9.45;;;;;;;;;;4996112;28;20042;-83
2022/08/18 13:29:27;;;;;;;9.63;8.63;;;;;;;;;;4979861;28;20034;-82
2022/08/18 13:31:57;;;;;;;10.45;9.00;;;;;;;;;;4979647;28;20046;-83
2022/08/18 13:34:26;;;;;;;10.30;9.15;;;;;;;;;;4980439;28;20034;-81
2022/08/18 13:36:51;;;;;;;8.73;7.35;;;;;;;;;;4981005;28;20044;-81
2022/08/18 13:39:21;;;;;;;9.63;8.63;;;;;;;;;;4979721;28;20412;-82
2022/08/18 13:41:47;;;;;;;10.23;8.25;;;;;;;;;;4980084;28;20073;-82
2022/08/18 13:44:14;;;;;;;9.63;8.35;;;;;;;;;;4996496;28;20038;-83
2022/08/18 13:46:47;;;;;;;8.80;7.68;;;;;;;;;;4980102;28;20041;-83
2022/08/18 13:49:16;;;;;;;8.32;7.50;;;;;;;;;;4997405;28;20158;-83
2022/08/18 13:51:42;;;;;;;7.97;7.18;;;;;;;;;;4999527;28;20048;-82
2022/08/18 13:54:08;;;;;;;9.13;8.10;;;;;;;;;;5015979;28;20029;-83
2022/08/18 13:56:34;;;;;;;9.13;7.68;;;;;;;;;;5015303;28;20083;-80
2022/08/18 13:58:59;;;;;;;10.40;8.25;;;;;;;;;;4999363;28;20029;-81
2022/08/18 14:01:25;;;;;;;8.45;7.43;;;;;;;;;;4999622;28;20076;-82
2022/08/18 14:03:50;;;;;;;9.18;8.20;;;;;;;;;;4998741;28;20029;-81
2022/08/18 14:06:19;;;;;;;8.32;7.43;;;;;;;;;;4998861;28;20130;-81
2022/08/18 14:08:45;;;;;;;9.02;8.02;;;;;;;;;;4999260;28;20553;-81
2022/08/18 14:11:10;;;;;;;8.70;7.82;;;;;;;;;;4998150;28;20041;-82
2022/08/18 14:13:36;;;;;;;8.60;7.57;;;;;;;;;;4999438;28;20075;-81
2022/08/18 14:16:01;;;;;;;9.50;8.02;;;;;;;;;;4982471;28;20056;-81
2022/08/18 14:18:28;;;;;;;9.57;7.53;;;;;;;;;;4998711;28;20060;-82
2022/08/18 14:26:47;;;;;;;8.73;7.30;;;;;;;;;;5017083;28;20037;-84
2022/08/18 14:26:49;;;;;;;8.60;7.70;;;;;;;;;;5005219;28;20044;-84
2022/08/18 14:29:16;;;;;;;8.48;7.68;;;;;;;;;;5003720;28;20124;-83
2022/08/18 14:31:41;;;;;;;9.07;7.60;;;;;;;;;;4998560;28;20033;-85
2022/08/18 14:34:07;;;;;;;8.23;6.50;;;;;;;;;;4982343;28;20039;-82
2022/08/18 14:36:33;;;;;;;8.82;7.07;;;;;;;;;;4997953;28;20160;-83
2022/08/18 14:38:59;;;;;;;7.57;6.80;;;;;;;;;;4998946;28;20026;-82
2022/08/18 14:41:24;;;;;;;8.07;7.30;;;;;;;;;;4998358;28;20041;-82
2022/08/18 14:43:51;;;;;;;8.68;7.43;;;;;;;;;;5000579;28;20034;-83
2022/08/18 14:46:17;;;;;;;7.90;7.10;;;;;;;;;;5002184;28;20041;-83
2022/08/18 14:48:43;;;;;;;9.07;7.05;;;;;;;;;;4985918;28;20385;-84
2022/08/18 14:51:08;;;;;;;7.53;6.60;;;;;;;;;;5000477;28;20407;-84
2022/08/18 14:53:35;;;;;;;8.38;6.95;;;;;;;;;;4983247;28;20034;-83
2022/08/18 14:56:01;;;;;;;8.95;7.30;;;;;;;;;;5000755;28;20040;-82
2022/08/18 14:58:29;;;;;;;8.02;7.15;;;;;;;;;;4984051;28;20037;-82
2022/08/18 15:00:55;;;;;;;8.15;6.82;;;;;;;;;;5000299;28;20088;-83
2022/08/18 15:03:21;;;;;;;7.45;6.75;;;;;;;;;;5000157;28;20026;-83
2022/08/18 15:05:47;;;;;;;7.72;6.65;;;;;;;;;;5016208;28;20076;-82
2022/08/18 15:08:12;;;;;;;7.55;6.63;;;;;;;;;;5011155;28;20551;-81
2022/08/18 15:10:38;;;;;;;10.95;7.72;;;;;;;;;;4996418;28;20046;-81
2022/08/18 15:13:03;;;;;;;9.35;7.28;;;;;;;;;;4996638;28;20397;-80
2022/08/18 15:15:29;;;;;;;9.32;7.72;;;;;;;;;;4979815;28;20034;-81
2022/08/18 15:17:54;;;;;;;9.15;7.38;;;;;;;;;;4980316;28;20042;-81
2022/08/18 15:20:21;;;;;;;8.57;6.28;;;;;;;;;;4980265;28;20036;-81
2022/08/18 15:25:53;;;;;;;8.75;7.38;;;;;;;;;;5006564;28;20040;-82
2022/08/18 15:28:18;;;;;;;12.07;7.85;;;;;;;;;;5031675;28;20675;-83
2022/08/18 15:30:44;;;;;;;8.10;7.28;;;;;;;;;;4999482;28;20029;-83
2022/08/18 15:33:10;;;;;;;7.88;7.07;;;;;;;;;;5016159;28;20087;-83
2022/08/18 15:35:35;;;;;;;8.05;7.25;;;;;;;;;;5015950;28;20025;-83
2022/08/18 15:38:01;;;;;;;8.75;7.18;;;;;;;;;;5015980;28;20037;-83
2022/08/18 15:40:27;;;;;;;8.95;7.35;;;;;;;;;;5031865;28;20084;-83
2022/08/18 15:42:55;;;;;;;10.85;6.43;;;;;;;;;;5015956;28;20045;-83
2022/08/18 15:45:27;;;;;;;7.25;6.35;;;;;;;;;;5016160;28;20037;-83
2022/08/18 15:47:52;;;;;;;8.13;7.32;;;;;;;;;;5015528;28;20037;-83
2022/08/18 15:50:18;;;;;;;7.95;7.15;;;;;;;;;;5015195;28;20099;-82
2022/08/18 15:52:48;;;;;;;7.55;6.60;;;;;;;;;;4999390;28;20124;-83
2022/08/18 15:55:14;;;;;;;7.88;7.07;;;;;;;;;;4999621;28;20033;-83
2022/08/18 15:57:40;;;;;;;7.75;6.40;;;;;;;;;;4983146;28;20468;-82
2022/08/18 16:00:06;;;;;;;8.98;7.03;;;;;;;;;;5015431;28;20056;-82
2022/08/18 16:02:32;;;;;;;9.43;7.35;;;;;;;;;;4982280;28;20493;-82
2022/08/18 16:05:00;;;;;;;8.20;7.40;;;;;;;;;;4983037;28;20045;-83
2022/08/18 16:07:27;;;;;;;7.82;7.07;;;;;;;;;;5015507;28;20033;-83
2022/08/18 16:09:52;;;;;;;8.60;7.18;;;;;;;;;;4998883;28;20044;-82
2022/08/18 16:12:18;;;;;;;7.78;6.97;;;;;;;;;;4998554;28;20037;-82
2022/08/18 16:14:43;;;;;;;8.68;7.00;;;;;;;;;;4982964;28;20411;-82
2022/08/18 16:17:09;;;;;;;8.55;6.43;;;;;;;;;;4998741;28;20099;-82
2022/08/18 16:19:34;;;;;;;7.45;6.57;;;;;;;;;;4988855;28;20420;-82
2022/08/18 16:22:05;;;;;;;7.68;6.88;;;;;;;;;;4979184;28;20038;-82
2022/08/18 16:24:30;;;;;;;7.97;6.63;;;;;;;;;;4996257;28;20164;-82
2022/08/18 16:26:56;;;;;;;6.97;6.28;;;;;;;;;;4979242;28;20474;-82
2022/08/18 16:29:21;;;;;;;6.57;5.97;;;;;;;;;;4995342;28;20073;-82
2022/08/18 16:31:47;;;;;;;6.88;6.22;;;;;;;;;;4978932;28;20050;-80
2022/08/18 16:34:13;;;;;;;6.95;6.25;;;;;;;;;;4979005;28;20034;-81